createdAt,value
2022-12-25T00:00:30.016Z,101708.97
2022-12-25T00:05:32.887Z,101702.19
2022-12-25T00:10:42.915Z,101710.19
2022-12-25T00:15:47.682Z,101690.50
2022-12-25T00:21:01.981Z,101712.13
2022-12-25T00:26:05.572Z,101707.53
2022-12-25T00:31:10.854Z,101711.25
2022-12-25T00:36:16.616Z,101713.19
2022-12-25T00:41:40.082Z,101710.31
2022-12-25T00:46:43.292Z,101711.41
2022-12-25T00:51:46.088Z,101722.72
2022-12-25T00:56:48.740Z,101720.59
2022-12-25T01:01:51.564Z,101727.34
2022-12-25T01:06:54.418Z,101720.59
2022-12-25T01:11:57.342Z,101728.41
2022-12-25T01:17:00.192Z,101719.16
2022-12-25T01:22:02.886Z,101727.34
2022-12-25T01:27:06.079Z,101706.03
2022-12-25T01:32:08.961Z,101734.25
2022-12-25T01:37:11.793Z,101728.38
2022-12-25T01:42:18.828Z,101725.03
2022-12-25T01:47:21.512Z,101729.13
2022-12-25T01:52:25.718Z,101709.41
2022-12-25T01:57:32.912Z,101722.00
2022-12-25T02:02:36.053Z,101714.34
2022-12-25T02:07:41.610Z,101712.03
2022-12-25T02:12:45.605Z,101697.13
2022-12-25T02:18:02.045Z,101705.78
2022-12-25T02:23:19.751Z,101707.22
2022-12-25T02:28:32.904Z,101702.47
2022-12-25T02:34:05.034Z,101718.22
2022-12-25T02:39:58.239Z,101719.09
2022-12-25T02:45:19.399Z,101723.72
2022-12-25T02:50:58.482Z,101705.78
2022-12-25T02:56:19.828Z,101680.59
2022-12-25T03:01:43.110Z,101711.25
2022-12-25T03:07:17.201Z,101713.03
2022-12-25T03:12:22.707Z,101717.28
2022-12-25T03:17:26.094Z,101711.94
2022-12-25T03:22:49.947Z,101712.63
2022-12-25T03:27:55.746Z,101678.97
2022-12-25T03:33:46.436Z,101715.59
2022-12-25T03:39:20.715Z,101706.88
2022-12-25T03:45:07.178Z,101707.56
2022-12-25T03:50:37.845Z,101706.25
2022-12-25T03:56:00.506Z,101673.38
2022-12-25T04:01:35.686Z,101693.91
2022-12-25T04:06:57.419Z,101696.56
2022-12-25T04:12:18.863Z,101691.03
2022-12-25T04:17:40.002Z,101695.44
2022-12-25T04:23:01.493Z,101688.88
2022-12-25T04:28:23.276Z,101692.91
2022-12-25T04:33:44.584Z,101688.78
2022-12-25T04:38:47.270Z,101680.53
2022-12-25T04:43:49.979Z,101676.44
2022-12-25T04:48:52.750Z,101667.72
2022-12-25T04:53:55.465Z,101674.72
2022-12-25T04:58:58.139Z,101673.28
2022-12-25T05:04:00.954Z,101660.97
2022-12-25T05:09:04.054Z,101655.03
2022-12-25T05:14:06.788Z,101648.31
2022-12-25T05:19:09.989Z,101643.97
2022-12-25T05:24:12.715Z,101636.34
2022-12-25T05:29:15.451Z,101647.44
2022-12-25T05:34:18.348Z,101648.59
2022-12-25T05:39:20.916Z,101599.84
2022-12-25T05:44:23.551Z,101634.03
2022-12-25T05:49:26.271Z,101602.03
2022-12-25T05:54:29.035Z,101627.94
2022-12-25T05:59:32.545Z,101616.50
2022-12-25T06:04:35.315Z,101624.66
2022-12-25T06:09:37.979Z,101621.59
2022-12-25T06:14:40.645Z,101616.97
2022-12-25T06:19:43.451Z,101618.22
2022-12-25T06:24:46.180Z,101619.66
2022-12-25T06:29:48.837Z,101612.34
2022-12-25T06:34:51.993Z,101617.72
2022-12-25T06:39:54.588Z,101614.88
2022-12-25T06:44:57.201Z,101612.75
2022-12-25T06:49:59.921Z,101597.34
2022-12-25T06:55:02.633Z,101612.91
2022-12-25T07:00:07.107Z,101580.59
2022-12-25T07:05:10.008Z,101613.81
2022-12-25T07:10:12.798Z,101597.34
2022-12-25T07:15:15.655Z,101588.81
2022-12-25T07:20:18.397Z,101585.59
2022-12-25T07:25:21.026Z,101585.03
2022-12-25T07:30:23.729Z,101572.09
2022-12-25T07:35:26.372Z,101572.09
2022-12-25T07:40:29.026Z,101580.03
2022-12-25T07:45:31.705Z,101578.31
2022-12-25T07:50:34.558Z,101556.44
2022-12-25T07:55:37.364Z,101569.38
2022-12-25T08:00:40.099Z,101571.13
2022-12-25T08:05:42.779Z,101570.59
2022-12-25T08:10:47.062Z,101569.84
2022-12-25T08:15:49.705Z,101554.56
2022-12-25T08:20:52.373Z,101570.25
2022-12-25T08:26:04.466Z,101564.78
2022-12-25T08:31:09.455Z,101569.38
2022-12-25T08:36:13.292Z,101562.34
2022-12-25T08:41:16.543Z,101571.06
2022-12-25T08:46:19.345Z,101566.94
2022-12-25T08:51:23.081Z,101559.13
2022-12-25T08:56:26.536Z,101550.47
2022-12-25T09:01:29.376Z,101541.81
2022-12-25T09:06:32.263Z,101541.13
2022-12-25T09:11:38.112Z,101549.31
2022-12-25T09:16:40.770Z,101550.81
2022-12-25T09:21:43.408Z,101552.13
2022-12-25T09:26:46.176Z,101546.66
2022-12-25T09:31:48.814Z,101552.53
2022-12-25T09:36:51.517Z,101552.53
2022-12-25T09:42:05.099Z,101555.16
2022-12-25T09:47:14.642Z,101507.53
2022-12-25T09:52:21.468Z,101542.97
2022-12-25T09:57:25.677Z,101550.13
2022-12-25T10:02:54.281Z,101545.56
2022-12-25T10:08:09.758Z,101549.59
2022-12-25T10:13:22.270Z,101544.09
2022-12-25T10:18:49.480Z,101547.59
2022-12-25T10:24:29.275Z,101545.25
2022-12-25T10:29:33.144Z,101558.03
2022-12-25T10:34:37.342Z,101547.47
2022-12-25T10:39:46.098Z,101554.22
2022-12-25T10:45:05.268Z,101553.03
2022-12-25T10:50:11.214Z,101550.53
2022-12-25T10:55:21.433Z,101551.28
2022-12-25T11:00:32.785Z,101548.22
2022-12-25T11:05:36.489Z,101554.06
2022-12-25T11:10:44.514Z,101545.72
2022-12-25T11:15:50.729Z,101546.34
2022-12-25T11:20:58.662Z,101546.34
2022-12-25T11:26:04.193Z,101548.38
2022-12-25T11:31:19.572Z,101537.34
2022-12-25T11:36:52.471Z,101537.66
2022-12-25T11:42:18.235Z,101533.72
2022-12-25T11:47:36.538Z,101539.44
2022-12-25T11:52:39.660Z,101540.91
2022-12-25T11:57:44.160Z,101536.53
2022-12-25T12:03:09.910Z,101536.06
2022-12-25T12:08:14.737Z,101541.38
2022-12-25T12:13:17.461Z,101530.91
2022-12-25T12:18:27.766Z,101526.22
2022-12-25T12:23:33.748Z,101537.25
2022-12-25T12:28:46.133Z,101536.22
2022-12-25T12:33:59.050Z,101540.56
2022-12-25T12:39:02.001Z,101526.50
2022-12-25T12:44:05.768Z,101538.56
2022-12-25T12:49:29.793Z,101539.59
2022-12-25T12:54:32.715Z,101542.56
2022-12-25T12:59:43.814Z,101546.41
2022-12-25T13:05:21.136Z,101554.63
2022-12-25T13:10:33.119Z,101546.28
2022-12-25T13:15:36.253Z,101583.13
2022-12-25T13:21:02.846Z,101574.84
2022-12-25T13:26:17.245Z,101585.91
2022-12-25T13:31:22.462Z,101594.03
2022-12-25T13:36:26.939Z,101574.53
2022-12-25T13:42:05.473Z,101570.88
2022-12-25T13:47:29.253Z,101559.56
2022-12-25T13:52:38.175Z,101584.69
2022-12-25T13:57:44.654Z,101577.78
2022-12-25T14:02:47.816Z,101574.88
2022-12-25T14:07:55.254Z,101573.59
2022-12-25T14:13:00.626Z,101569.66
2022-12-25T14:18:03.434Z,101555.50
2022-12-25T14:23:06.874Z,101518.66
2022-12-25T14:28:25.427Z,101554.06
2022-12-25T14:33:28.618Z,101538.69
2022-12-25T14:38:35.295Z,101546.09
2022-12-25T14:43:37.945Z,101550.41
2022-12-25T14:48:40.684Z,101541.66
2022-12-25T14:53:51.774Z,101540.47
2022-12-25T14:58:56.875Z,101546.09
2022-12-25T15:04:08.620Z,101531.59
2022-12-25T15:09:16.355Z,101531.03
2022-12-25T15:14:19.307Z,101528.34
2022-12-25T15:19:33.222Z,101514.22
2022-12-25T15:24:41.699Z,101521.44
2022-12-25T15:30:09.122Z,101532.63
2022-12-25T15:35:15.572Z,101526.75
2022-12-25T15:40:21.688Z,101508.69
2022-12-25T15:45:28.031Z,101520.63
2022-12-25T15:50:32.953Z,101464.22
2022-12-25T15:55:36.968Z,101516.75
2022-12-25T16:00:39.721Z,101505.31
2022-12-25T16:05:42.457Z,101505.50
2022-12-25T16:10:45.414Z,101506.53
2022-12-25T16:15:48.374Z,101499.91
2022-12-25T16:20:52.617Z,101496.13
2022-12-25T16:25:55.485Z,101505.25
2022-12-25T16:30:58.356Z,101499.50
2022-12-25T16:36:01.031Z,101499.88
2022-12-25T16:41:03.803Z,101504.69
2022-12-25T16:46:16.051Z,101507.44
2022-12-25T16:51:20.759Z,101492.47
2022-12-25T16:56:28.687Z,101500.13
2022-12-25T17:01:31.489Z,101496.00
2022-12-25T17:06:34.196Z,101500.75
2022-12-25T17:11:36.951Z,101503.38
2022-12-25T17:16:40.999Z,101496.72
2022-12-25T17:21:43.756Z,101499.50
2022-12-25T17:26:46.557Z,101498.38
2022-12-25T17:31:49.421Z,101499.81
2022-12-25T17:36:53.722Z,101500.75
2022-12-25T17:41:56.460Z,101501.94
2022-12-25T17:46:59.462Z,101489.72
2022-12-25T17:52:02.257Z,101485.75
2022-12-25T17:57:05.287Z,101487.22
2022-12-25T18:02:13.680Z,101482.53
2022-12-25T18:07:17.712Z,101484.59
2022-12-25T18:12:20.399Z,101476.94
2022-12-25T18:17:23.053Z,101488.25
2022-12-25T18:22:25.682Z,101479.47
2022-12-25T18:27:28.544Z,101479.03
2022-12-25T18:32:31.396Z,101477.28
2022-12-25T18:37:39.933Z,101474.50
2022-12-25T18:42:43.693Z,101475.50
2022-12-25T18:47:46.689Z,101472.44
2022-12-25T18:52:51.587Z,101476.69
2022-12-25T18:57:55.012Z,101471.69
2022-12-25T19:02:59.208Z,101461.44
2022-12-25T19:08:02.285Z,101468.00
2022-12-25T19:13:05.251Z,101463.75
2022-12-25T19:18:07.957Z,101461.72
2022-12-25T19:23:10.689Z,101463.75
2022-12-25T19:28:13.391Z,101464.03
2022-12-25T19:33:18.074Z,101465.38
2022-12-25T19:38:21.315Z,101472.28
2022-12-25T19:43:23.999Z,101471.53
2022-12-25T19:48:26.770Z,101469.78
2022-12-25T19:53:30.600Z,101470.22
2022-12-25T19:58:33.308Z,101477.84
2022-12-25T20:03:45.328Z,101468.16
2022-12-25T20:08:50.477Z,101474.66
2022-12-25T20:13:54.376Z,101474.03
2022-12-25T20:18:58.032Z,101475.50
2022-12-25T20:24:00.750Z,101484.59
2022-12-25T20:29:03.985Z,101475.41
2022-12-25T20:34:08.711Z,101483.34
2022-12-25T20:39:11.555Z,101478.19
2022-12-25T20:44:14.263Z,101476.28
2022-12-25T20:49:16.890Z,101485.25
2022-12-25T20:54:19.608Z,101478.31
2022-12-25T20:59:22.500Z,101486.38
2022-12-25T21:04:25.097Z,101486.50
2022-12-25T21:09:27.757Z,101469.78
2022-12-25T21:14:30.933Z,101451.69
2022-12-25T21:19:33.713Z,101472.16
2022-12-25T21:24:36.691Z,101475.53
2022-12-25T21:29:39.557Z,101478.03
2022-12-25T21:34:42.185Z,101469.94
2022-12-25T21:39:44.875Z,101475.41
2022-12-25T21:44:48.453Z,101464.97
2022-12-25T21:50:09.621Z,101461.88
2022-12-25T21:55:12.253Z,101464.81
2022-12-25T22:00:15.454Z,101467.03
2022-12-25T22:05:38.161Z,101476.28
2022-12-25T22:10:40.923Z,101476.56
2022-12-25T22:16:02.210Z,101490.50
2022-12-25T22:21:05.009Z,101453.47
2022-12-25T22:26:07.604Z,101487.88
2022-12-25T22:31:11.162Z,101493.59
2022-12-25T22:36:13.829Z,101488.75
2022-12-25T22:41:16.466Z,101482.00
2022-12-25T22:46:19.228Z,101480.06
2022-12-25T22:51:21.864Z,101479.94
2022-12-25T22:56:24.849Z,101476.09
2022-12-25T23:01:27.570Z,101476.72
2022-12-25T23:06:30.699Z,101488.31
2022-12-25T23:11:33.619Z,101475.84
2022-12-25T23:16:36.471Z,101477.91
2022-12-25T23:21:58.387Z,101472.31
2022-12-25T23:27:01.162Z,101477.00
2022-12-25T23:32:12.041Z,101473.50
2022-12-25T23:37:15.002Z,101485.25
2022-12-25T23:42:18.313Z,101480.84
2022-12-25T23:47:20.929Z,101474.38
2022-12-25T23:52:23.611Z,101470.25
2022-12-25T23:57:26.285Z,101464.25
